sensor_id;sensor_type;location;lat;lon;timestamp;pressure;altitude;pressure_sealevel;temperature;humidity
12594;BME280;6362;50.208;9.182;2023-05-03T00:00:00;100916.34;;;5.36;70.95
12594;BME280;6362;50.208;9.182;2023-05-03T00:02:25;100917.22;;;5.37;71.33
12594;BME280;6362;50.208;9.182;2023-05-03T00:04:51;100914.50;;;5.32;72.01
12594;BME280;6362;50.208;9.182;2023-05-03T00:07:17;100918.72;;;5.28;72.07
12594;BME280;6362;50.208;9.182;2023-05-03T00:09:43;100910.09;;;5.28;71.82
12594;BME280;6362;50.208;9.182;2023-05-03T00:12:08;100911.31;;;5.41;71.89
12594;BME280;6362;50.208;9.182;2023-05-03T00:14:34;100907.25;;;5.49;70.40
12594;BME280;6362;50.208;9.182;2023-05-03T00:16:59;100901.84;;;5.40;70.34
12594;BME280;6362;50.208;9.182;2023-05-03T00:19:24;100907.69;;;5.34;71.00
12594;BME280;6362;50.208;9.182;2023-05-03T00:21:54;100907.63;;;5.33;70.78
12594;BME280;6362;50.208;9.182;2023-05-03T00:24:19;100909.16;;;5.26;71.26
12594;BME280;6362;50.208;9.182;2023-05-03T00:26:45;100907.19;;;5.17;71.76
12594;BME280;6362;50.208;9.182;2023-05-03T00:29:10;100909.63;;;5.13;72.35
12594;BME280;6362;50.208;9.182;2023-05-03T00:31:36;100911.09;;;5.04;72.35
12594;BME280;6362;50.208;9.182;2023-05-03T00:34:01;100906.63;;;4.99;73.20
12594;BME280;6362;50.208;9.182;2023-05-03T00:36:26;100907.28;;;4.92;73.72
12594;BME280;6362;50.208;9.182;2023-05-03T00:38:52;100908.78;;;4.85;74.46
12594;BME280;6362;50.208;9.182;2023-05-03T00:41:17;100895.75;;;4.81;74.72
12594;BME280;6362;50.208;9.182;2023-05-03T00:43:43;100892.09;;;4.72;74.97
12594;BME280;6362;50.208;9.182;2023-05-03T00:46:08;100889.28;;;4.66;74.73
12594;BME280;6362;50.208;9.182;2023-05-03T00:48:34;100898.47;;;4.58;75.44
12594;BME280;6362;50.208;9.182;2023-05-03T00:51:01;100887.97;;;4.52;76.42
12594;BME280;6362;50.208;9.182;2023-05-03T00:53:27;100889.56;;;4.48;75.98
12594;BME280;6362;50.208;9.182;2023-05-03T00:55:54;100892.97;;;4.47;75.75
12594;BME280;6362;50.208;9.182;2023-05-03T00:58:20;100885.09;;;4.43;75.90
12594;BME280;6362;50.208;9.182;2023-05-03T01:00:46;100891.88;;;4.39;75.73
12594;BME280;6362;50.208;9.182;2023-05-03T01:03:13;100885.88;;;4.40;75.46
12594;BME280;6362;50.208;9.182;2023-05-03T01:08:33;100880.81;;;4.43;75.57
12594;BME280;6362;50.208;9.182;2023-05-03T01:16:54;100876.84;;;4.53;74.19
12594;BME280;6362;50.208;9.182;2023-05-03T01:19:33;100869.22;;;4.56;74.34
12594;BME280;6362;50.208;9.182;2023-05-03T01:24:45;100860.53;;;4.53;73.78
12594;BME280;6362;50.208;9.182;2023-05-03T01:27:11;100857.13;;;4.54;73.76
12594;BME280;6362;50.208;9.182;2023-05-03T01:29:38;100850.44;;;4.60;73.67
12594;BME280;6362;50.208;9.182;2023-05-03T01:32:06;100861.50;;;4.56;73.18
12594;BME280;6362;50.208;9.182;2023-05-03T01:34:47;100860.28;;;4.45;74.01
12594;BME280;6362;50.208;9.182;2023-05-03T01:37:15;100858.59;;;4.45;73.91
12594;BME280;6362;50.208;9.182;2023-05-03T01:39:52;100863.63;;;4.42;74.12
12594;BME280;6362;50.208;9.182;2023-05-03T01:42:21;100864.41;;;4.40;74.17
12594;BME280;6362;50.208;9.182;2023-05-03T01:44:48;100865.13;;;4.36;74.13
12594;BME280;6362;50.208;9.182;2023-05-03T01:47:14;100869.38;;;4.34;73.75
12594;BME280;6362;50.208;9.182;2023-05-03T01:49:39;100866.78;;;4.34;74.31
12594;BME280;6362;50.208;9.182;2023-05-03T01:52:05;100864.97;;;4.31;74.16
12594;BME280;6362;50.208;9.182;2023-05-03T01:54:31;100864.91;;;4.28;74.10
12594;BME280;6362;50.208;9.182;2023-05-03T01:56:56;100861.50;;;4.29;74.32
12594;BME280;6362;50.208;9.182;2023-05-03T01:59:22;100857.00;;;4.23;74.79
12594;BME280;6362;50.208;9.182;2023-05-03T02:01:47;100856.00;;;4.18;74.48
12594;BME280;6362;50.208;9.182;2023-05-03T02:04:12;100866.31;;;4.20;74.68
12594;BME280;6362;50.208;9.182;2023-05-03T02:06:38;100867.34;;;4.25;74.29
12594;BME280;6362;50.208;9.182;2023-05-03T02:09:03;100866.44;;;4.23;74.10
12594;BME280;6362;50.208;9.182;2023-05-03T02:11:29;100868.94;;;4.21;74.92
12594;BME280;6362;50.208;9.182;2023-05-03T02:13:54;100868.91;;;4.20;74.33
12594;BME280;6362;50.208;9.182;2023-05-03T02:16:20;100869.88;;;4.23;74.31
12594;BME280;6362;50.208;9.182;2023-05-03T02:18:45;100875.88;;;4.22;74.20
12594;BME280;6362;50.208;9.182;2023-05-03T02:21:11;100872.41;;;4.22;74.62
12594;BME280;6362;50.208;9.182;2023-05-03T02:23:37;100874.09;;;4.21;74.20
12594;BME280;6362;50.208;9.182;2023-05-03T02:26:03;100876.91;;;4.28;73.83
12594;BME280;6362;50.208;9.182;2023-05-03T02:28:28;100877.66;;;4.25;74.06
12594;BME280;6362;50.208;9.182;2023-05-03T02:30:54;100878.28;;;4.18;74.77
12594;BME280;6362;50.208;9.182;2023-05-03T02:33:19;100878.13;;;4.13;75.21
12594;BME280;6362;50.208;9.182;2023-05-03T02:35:45;100873.00;;;4.15;75.01
12594;BME280;6362;50.208;9.182;2023-05-03T02:38:10;100877.97;;;4.09;74.62
12594;BME280;6362;50.208;9.182;2023-05-03T02:40:36;100875.44;;;4.10;74.59
12594;BME280;6362;50.208;9.182;2023-05-03T02:43:01;100881.38;;;4.08;75.27
12594;BME280;6362;50.208;9.182;2023-05-03T02:45:28;100883.91;;;4.06;74.81
12594;BME280;6362;50.208;9.182;2023-05-03T02:47:53;100869.31;;;4.07;74.63
12594;BME280;6362;50.208;9.182;2023-05-03T02:50:18;100868.34;;;4.03;74.95
12594;BME280;6362;50.208;9.182;2023-05-03T02:52:44;100876.31;;;4.11;74.79
12594;BME280;6362;50.208;9.182;2023-05-03T02:55:09;100876.31;;;4.11;74.18
12594;BME280;6362;50.208;9.182;2023-05-03T02:57:35;100882.94;;;4.04;74.53
12594;BME280;6362;50.208;9.182;2023-05-03T03:00:00;100884.50;;;3.99;74.82
12594;BME280;6362;50.208;9.182;2023-05-03T03:02:28;100886.09;;;3.95;74.52
12594;BME280;6362;50.208;9.182;2023-05-03T03:04:54;100882.50;;;3.90;74.83
12594;BME280;6362;50.208;9.182;2023-05-03T03:07:19;100896.94;;;3.87;75.34
12594;BME280;6362;50.208;9.182;2023-05-03T03:09:45;100890.75;;;3.82;75.64
12594;BME280;6362;50.208;9.182;2023-05-03T03:12:11;100884.75;;;3.81;75.80
12594;BME280;6362;50.208;9.182;2023-05-03T03:14:36;100887.94;;;3.74;76.15
12594;BME280;6362;50.208;9.182;2023-05-03T03:17:06;100881.13;;;3.76;75.65
12594;BME280;6362;50.208;9.182;2023-05-03T03:19:32;100882.72;;;3.73;75.46
12594;BME280;6362;50.208;9.182;2023-05-03T03:21:58;100889.34;;;3.66;75.98
12594;BME280;6362;50.208;9.182;2023-05-03T03:24:23;100887.75;;;3.69;76.02
12594;BME280;6362;50.208;9.182;2023-05-03T03:26:49;100883.16;;;3.61;75.76
12594;BME280;6362;50.208;9.182;2023-05-03T03:29:14;100888.47;;;3.65;75.95
12594;BME280;6362;50.208;9.182;2023-05-03T03:31:40;100887.66;;;3.66;75.99
12594;BME280;6362;50.208;9.182;2023-05-03T03:34:05;100887.72;;;3.68;75.50
12594;BME280;6362;50.208;9.182;2023-05-03T03:36:31;100885.84;;;3.64;75.82
12594;BME280;6362;50.208;9.182;2023-05-03T03:38:56;100888.28;;;3.61;75.84
12594;BME280;6362;50.208;9.182;2023-05-03T03:41:21;100884.72;;;3.56;75.84
12594;BME280;6362;50.208;9.182;2023-05-03T03:43:47;100876.03;;;3.54;75.85
12594;BME280;6362;50.208;9.182;2023-05-03T03:46:12;100884.72;;;3.56;75.92
12594;BME280;6362;50.208;9.182;2023-05-03T03:48:38;100890.34;;;3.46;75.73
12594;BME280;6362;50.208;9.182;2023-05-03T03:51:03;100887.03;;;3.50;76.13
12594;BME280;6362;50.208;9.182;2023-05-03T03:53:29;100889.50;;;3.47;76.05
12594;BME280;6362;50.208;9.182;2023-05-03T03:55:54;100883.44;;;3.44;75.96
12594;BME280;6362;50.208;9.182;2023-05-03T03:58:20;100880.88;;;3.44;76.60
12594;BME280;6362;50.208;9.182;2023-05-03T04:00:46;100877.34;;;3.42;76.03
12594;BME280;6362;50.208;9.182;2023-05-03T04:03:12;100879.03;;;3.42;75.95
12594;BME280;6362;50.208;9.182;2023-05-03T04:05:37;100880.56;;;3.37;76.17
12594;BME280;6362;50.208;9.182;2023-05-03T04:08:03;100891.06;;;3.43;75.70
12594;BME280;6362;50.208;9.182;2023-05-03T04:10:28;100883.38;;;3.43;76.32
12594;BME280;6362;50.208;9.182;2023-05-03T04:12:54;100887.63;;;3.42;75.49
12594;BME280;6362;50.208;9.182;2023-05-03T04:15:20;100883.44;;;3.44;75.83
12594;BME280;6362;50.208;9.182;2023-05-03T04:17:45;100891.72;;;3.37;75.99
12594;BME280;6362;50.208;9.182;2023-05-03T04:20:11;100886.66;;;3.39;76.02
12594;BME280;6362;50.208;9.182;2023-05-03T04:22:37;100886.66;;;3.39;75.41
12594;BME280;6362;50.208;9.182;2023-05-03T04:25:05;100897.00;;;3.40;75.98
12594;BME280;6362;50.208;9.182;2023-05-03T04:27:32;100893.66;;;3.43;75.65
12594;BME280;6362;50.208;9.182;2023-05-03T04:29:58;100890.34;;;3.46;75.81
12594;BME280;6362;50.208;9.182;2023-05-03T04:32:24;100901.44;;;3.44;75.58
12594;BME280;6362;50.208;9.182;2023-05-03T04:34:49;100910.06;;;3.47;75.36
12594;BME280;6362;50.208;9.182;2023-05-03T04:37:17;100906.59;;;3.44;75.66
12594;BME280;6362;50.208;9.182;2023-05-03T04:39:43;100904.00;;;3.44;75.53
12594;BME280;6362;50.208;9.182;2023-05-03T04:42:10;100908.50;;;3.50;75.04
12594;BME280;6362;50.208;9.182;2023-05-03T04:44:36;100910.06;;;3.47;75.01
12594;BME280;6362;50.208;9.182;2023-05-03T04:47:02;100911.88;;;3.49;74.75
12594;BME280;6362;50.208;9.182;2023-05-03T04:49:27;100896.63;;;3.54;75.13
12594;BME280;6362;50.208;9.182;2023-05-03T04:51:53;100911.22;;;3.55;74.66
12594;BME280;6362;50.208;9.182;2023-05-03T04:54:18;100907.94;;;3.59;74.32
12594;BME280;6362;50.208;9.182;2023-05-03T04:56:43;100904.63;;;3.61;74.32
12594;BME280;6362;50.208;9.182;2023-05-03T04:59:09;100904.66;;;3.63;74.08
12594;BME280;6362;50.208;9.182;2023-05-03T05:01:34;100898.81;;;3.67;74.12
12594;BME280;6362;50.208;9.182;2023-05-03T05:04:00;100907.84;;;3.80;73.45
12594;BME280;6362;50.208;9.182;2023-05-03T05:06:25;100905.06;;;3.74;73.80
12594;BME280;6362;50.208;9.182;2023-05-03T05:08:51;100912.13;;;3.79;73.42
12594;BME280;6362;50.208;9.182;2023-05-03T05:11:16;100911.28;;;3.80;73.91
12594;BME280;6362;50.208;9.182;2023-05-03T05:13:43;100918.31;;;3.84;73.44
12594;BME280;6362;50.208;9.182;2023-05-03T05:16:08;100923.00;;;3.96;73.10
12594;BME280;6362;50.208;9.182;2023-05-03T05:18:33;100924.78;;;3.98;72.63
12594;BME280;6362;50.208;9.182;2023-05-03T05:20:59;100923.47;;;4.10;72.73
12594;BME280;6362;50.208;9.182;2023-05-03T05:23:24;100918.03;;;4.26;72.19
12594;BME280;6362;50.208;9.182;2023-05-03T05:25:50;100918.53;;;4.41;71.65
12594;BME280;6362;50.208;9.182;2023-05-03T05:28:15;100917.38;;;4.59;70.82
12594;BME280;6362;50.208;9.182;2023-05-03T05:30:41;100921.50;;;4.79;69.90
12594;BME280;6362;50.208;9.182;2023-05-03T05:33:06;100927.94;;;4.93;69.78
12594;BME280;6362;50.208;9.182;2023-05-03T05:35:32;100924.66;;;4.99;69.08
12594;BME280;6362;50.208;9.182;2023-05-03T05:37:58;100926.75;;;5.11;68.87
12594;BME280;6362;50.208;9.182;2023-05-03T05:40:23;100929.72;;;5.23;68.73
12594;BME280;6362;50.208;9.182;2023-05-03T05:42:49;100925.81;;;5.37;67.58
12594;BME280;6362;50.208;9.182;2023-05-03T05:45:14;100919.78;;;5.37;67.55
12594;BME280;6362;50.208;9.182;2023-05-03T05:47:40;100921.28;;;5.59;67.09
12594;BME280;6362;50.208;9.182;2023-05-03T05:50:05;100926.78;;;5.71;66.05
12594;BME280;6362;50.208;9.182;2023-05-03T05:52:31;100916.06;;;5.87;65.27
12594;BME280;6362;50.208;9.182;2023-05-03T05:54:57;100918.91;;;5.95;65.42
12594;BME280;6362;50.208;9.182;2023-05-03T05:57:22;100923.59;;;6.09;64.76
12594;BME280;6362;50.208;9.182;2023-05-03T05:59:48;100922.25;;;6.24;63.94
12594;BME280;6362;50.208;9.182;2023-05-03T06:02:15;100911.34;;;6.35;63.28
12594;BME280;6362;50.208;9.182;2023-05-03T06:04:41;100922.00;;;6.48;63.04
12594;BME280;6362;50.208;9.182;2023-05-03T06:07:06;100923.06;;;6.56;62.35
12594;BME280;6362;50.208;9.182;2023-05-03T06:09:32;100923.38;;;6.70;61.12
12594;BME280;6362;50.208;9.182;2023-05-03T06:11:57;100916.78;;;6.82;61.26
12594;BME280;6362;50.208;9.182;2023-05-03T06:14:23;100918.34;;;6.74;61.02
12594;BME280;6362;50.208;9.182;2023-05-03T06:16:48;100913.28;;;6.79;60.82
12594;BME280;6362;50.208;9.182;2023-05-03T06:19:14;100921.81;;;6.76;60.72
12594;BME280;6362;50.208;9.182;2023-05-03T06:21:39;100902.25;;;6.87;60.43
12594;BME280;6362;50.208;9.182;2023-05-03T06:24:05;100906.16;;;7.06;60.02
12594;BME280;6362;50.208;9.182;2023-05-03T06:26:30;100907.31;;;7.21;60.00
12594;BME280;6362;50.208;9.182;2023-05-03T06:28:56;100916.22;;;7.33;63.75
12594;BME280;6362;50.208;9.182;2023-05-03T06:31:21;100911.16;;;7.82;63.37
12594;BME280;6362;50.208;9.182;2023-05-03T06:33:47;100909.38;;;8.26;61.57
12594;BME280;6362;50.208;9.182;2023-05-03T06:36:12;100903.84;;;8.53;58.29
12594;BME280;6362;50.208;9.182;2023-05-03T06:38:38;100917.91;;;8.67;57.27
12594;BME280;6362;50.208;9.182;2023-05-03T06:41:03;100909.03;;;8.55;55.94
12594;BME280;6362;50.208;9.182;2023-05-03T06:43:29;100912.22;;;8.93;55.97
12594;BME280;6362;50.208;9.182;2023-05-03T06:45:54;100913.88;;;8.86;54.77
12594;BME280;6362;50.208;9.182;2023-05-03T06:48:20;100910.47;;;8.90;53.84
12594;BME280;6362;50.208;9.182;2023-05-03T06:50:46;100905.22;;;8.86;54.07
12594;BME280;6362;50.208;9.182;2023-05-03T06:53:11;100907.75;;;8.83;53.39
12594;BME280;6362;50.208;9.182;2023-05-03T06:55:37;100908.56;;;8.79;53.89
12594;BME280;6362;50.208;9.182;2023-05-03T06:58:03;100912.38;;;9.02;54.13
12594;BME280;6362;50.208;9.182;2023-05-03T07:00:34;100903.03;;;9.13;53.31
12594;BME280;6362;50.208;9.182;2023-05-03T07:02:59;100908.22;;;9.15;53.56
12594;BME280;6362;50.208;9.182;2023-05-03T07:05:25;100904.88;;;9.22;53.44
12594;BME280;6362;50.208;9.182;2023-05-03T07:07:51;100898.91;;;9.29;53.79
12594;BME280;6362;50.208;9.182;2023-05-03T07:10:16;100901.66;;;9.43;52.90
12594;BME280;6362;50.208;9.182;2023-05-03T07:12:42;100902.75;;;9.60;52.92
12594;BME280;6362;50.208;9.182;2023-05-03T07:15:07;100902.91;;;9.72;53.18
12594;BME280;6362;50.208;9.182;2023-05-03T07:17:33;100903.00;;;9.82;52.19
12594;BME280;6362;50.208;9.182;2023-05-03T07:19:58;100897.22;;;10.05;51.58
12594;BME280;6362;50.208;9.182;2023-05-03T07:22:24;100894.63;;;10.10;51.81
12594;BME280;6362;50.208;9.182;2023-05-03T07:24:52;100897.47;;;10.28;51.46
12594;BME280;6362;50.208;9.182;2023-05-03T07:27:19;100900.22;;;10.44;52.03
12594;BME280;6362;50.208;9.182;2023-05-03T07:29:45;100890.75;;;10.58;51.73
12594;BME280;6362;50.208;9.182;2023-05-03T07:32:10;100895.31;;;10.83;50.91
12594;BME280;6362;50.208;9.182;2023-05-03T07:34:36;100889.31;;;10.97;50.07
12594;BME280;6362;50.208;9.182;2023-05-03T07:37:01;100889.38;;;11.07;50.56
12594;BME280;6362;50.208;9.182;2023-05-03T07:39:27;100890.25;;;11.05;51.35
12594;BME280;6362;50.208;9.182;2023-05-03T07:41:52;100890.34;;;11.29;50.26
12594;BME280;6362;50.208;9.182;2023-05-03T07:44:18;100887.81;;;11.42;50.29
12594;BME280;6362;50.208;9.182;2023-05-03T07:46:43;100887.00;;;11.56;49.92
12594;BME280;6362;50.208;9.182;2023-05-03T07:49:09;100886.16;;;11.70;50.11
12594;BME280;6362;50.208;9.182;2023-05-03T07:51:35;100887.16;;;12.01;50.09
12594;BME280;6362;50.208;9.182;2023-05-03T07:54:01;100882.81;;;12.00;48.35
12594;BME280;6362;50.208;9.182;2023-05-03T07:56:26;100880.25;;;12.17;49.10
12594;BME280;6362;50.208;9.182;2023-05-03T07:58:52;100879.34;;;12.27;49.34
12594;BME280;6362;50.208;9.182;2023-05-03T08:01:19;100876.75;;;12.36;48.11
12594;BME280;6362;50.208;9.182;2023-05-03T08:03:45;100882.88;;;12.39;48.38
12594;BME280;6362;50.208;9.182;2023-05-03T08:06:11;100886.31;;;12.49;48.20
12594;BME280;6362;50.208;9.182;2023-05-03T08:08:36;100880.25;;;12.73;47.96
12594;BME280;6362;50.208;9.182;2023-05-03T08:11:02;100882.81;;;12.81;47.00
12594;BME280;6362;50.208;9.182;2023-05-03T08:13:28;100876.78;;;12.66;47.16
12594;BME280;6362;50.208;9.182;2023-05-03T08:15:53;100877.63;;;12.88;48.84
12594;BME280;6362;50.208;9.182;2023-05-03T08:18:19;100875.84;;;12.93;47.03
12594;BME280;6362;50.208;9.182;2023-05-03T08:20:44;100868.91;;;12.83;47.45
12594;BME280;6362;50.208;9.182;2023-05-03T08:23:11;100867.94;;;13.18;47.96
12594;BME280;6362;50.208;9.182;2023-05-03T08:25:36;100868.78;;;13.38;47.10
12594;BME280;6362;50.208;9.182;2023-05-03T08:28:02;100864.38;;;13.48;47.28
12594;BME280;6362;50.208;9.182;2023-05-03T08:30:28;100863.53;;;13.43;48.18
12594;BME280;6362;50.208;9.182;2023-05-03T08:32:54;100859.97;;;13.59;46.89
12594;BME280;6362;50.208;9.182;2023-05-03T08:35:19;100865.22;;;13.61;46.17
12594;BME280;6362;50.208;9.182;2023-05-03T08:37:45;100866.88;;;13.77;46.01
12594;BME280;6362;50.208;9.182;2023-05-03T08:40:11;100859.00;;;13.79;46.10
12594;BME280;6362;50.208;9.182;2023-05-03T08:42:44;100862.38;;;13.97;45.67
12594;BME280;6362;50.208;9.182;2023-05-03T08:45:13;100862.28;;;14.11;45.77
12594;BME280;6362;50.208;9.182;2023-05-03T08:47:40;100856.41;;;13.77;45.80
12594;BME280;6362;50.208;9.182;2023-05-03T08:50:07;100861.56;;;13.85;43.32
12594;BME280;6362;50.208;9.182;2023-05-03T08:52:34;100861.31;;;14.24;44.36
12594;BME280;6362;50.208;9.182;2023-05-03T08:55:00;100869.75;;;14.62;44.40
12594;BME280;6362;50.208;9.182;2023-05-03T08:57:26;100860.94;;;14.69;43.55
12594;BME280;6362;50.208;9.182;2023-05-03T08:59:52;100859.84;;;14.91;44.17
12594;BME280;6362;50.208;9.182;2023-05-03T09:02:22;100852.84;;;14.93;41.67
12594;BME280;6362;50.208;9.182;2023-05-03T09:04:48;100857.09;;;15.07;41.90
12594;BME280;6362;50.208;9.182;2023-05-03T09:07:13;100856.94;;;15.19;40.62
12594;BME280;6362;50.208;9.182;2023-05-03T09:09:41;100852.59;;;15.18;41.67
12594;BME280;6362;50.208;9.182;2023-05-03T09:12:07;100851.38;;;15.45;44.12
12594;BME280;6362;50.208;9.182;2023-05-03T09:14:43;100861.53;;;15.71;41.11
12594;BME280;6362;50.208;9.182;2023-05-03T09:17:13;100863.06;;;15.89;40.37
12594;BME280;6362;50.208;9.182;2023-05-03T09:19:54;100856.94;;;15.87;40.62
12594;BME280;6362;50.208;9.182;2023-05-03T09:22:21;100860.44;;;15.89;39.61
12594;BME280;6362;50.208;9.182;2023-05-03T09:24:58;100859.16;;;16.14;42.25
12594;BME280;6362;50.208;9.182;2023-05-03T09:27:25;100857.38;;;16.18;41.03
12594;BME280;6362;50.208;9.182;2023-05-03T09:29:51;100846.75;;;16.25;40.79
12594;BME280;6362;50.208;9.182;2023-05-03T09:32:17;100853.50;;;16.40;38.74
12594;BME280;6362;50.208;9.182;2023-05-03T09:34:44;100840.16;;;16.52;40.53
12594;BME280;6362;50.208;9.182;2023-05-03T09:37:11;100841.19;;;16.44;39.27
12594;BME280;6362;50.208;9.182;2023-05-03T09:39:39;100844.91;;;16.81;39.31
12594;BME280;6362;50.208;9.182;2023-05-03T09:42:15;100841.41;;;17.27;37.80
12594;BME280;6362;50.208;9.182;2023-05-03T09:44:46;100837.16;;;17.22;36.68
12594;BME280;6362;50.208;9.182;2023-05-03T09:47:18;100834.63;;;17.15;35.67
12594;BME280;6362;50.208;9.182;2023-05-03T09:49:44;100838.88;;;17.23;37.01
12594;BME280;6362;50.208;9.182;2023-05-03T09:52:10;100825.09;;;17.52;36.10
12594;BME280;6362;50.208;9.182;2023-05-03T09:54:36;100827.59;;;17.58;35.81
12594;BME280;6362;50.208;9.182;2023-05-03T09:57:04;100824.22;;;17.91;37.04
12594;BME280;6362;50.208;9.182;2023-05-03T09:59:35;100827.22;;;18.13;37.13
12594;BME280;6362;50.208;9.182;2023-05-03T10:02:03;100818.63;;;18.07;36.80
12594;BME280;6362;50.208;9.182;2023-05-03T10:04:37;100812.72;;;18.33;35.27
12594;BME280;6362;50.208;9.182;2023-05-03T10:07:07;100800.56;;;18.60;36.09
12594;BME280;6362;50.208;9.182;2023-05-03T10:09:44;100803.00;;;18.69;34.64
12594;BME280;6362;50.208;9.182;2023-05-03T10:12:11;100804.41;;;18.82;35.92
12594;BME280;6362;50.208;9.182;2023-05-03T10:14:44;100809.38;;;19.24;33.89
12594;BME280;6362;50.208;9.182;2023-05-03T10:17:24;100796.81;;;18.70;31.84
12594;BME280;6362;50.208;9.182;2023-05-03T10:19:55;100799.97;;;19.14;32.31
12594;BME280;6362;50.208;9.182;2023-05-03T10:22:27;100806.41;;;19.35;31.39
12594;BME280;6362;50.208;9.182;2023-05-03T10:27:21;100790.78;;;19.57;33.18
12594;BME280;6362;50.208;9.182;2023-05-03T10:29:47;100793.69;;;19.49;31.32
12594;BME280;6362;50.208;9.182;2023-05-03T10:32:27;100781.31;;;19.21;32.44
12594;BME280;6362;50.208;9.182;2023-05-03T10:35:26;100788.56;;;19.43;32.40
12594;BME280;6362;50.208;9.182;2023-05-03T10:37:52;100783.75;;;19.57;30.75
12594;BME280;6362;50.208;9.182;2023-05-03T10:40:18;100775.72;;;19.62;32.14
12594;BME280;6362;50.208;9.182;2023-05-03T10:42:49;100781.22;;;19.82;31.43
12594;BME280;6362;50.208;9.182;2023-05-03T10:48:15;100783.25;;;19.74;33.04
12594;BME280;6362;50.208;9.182;2023-05-03T10:50:44;100772.28;;;19.86;32.36
12594;BME280;6362;50.208;9.182;2023-05-03T10:56:12;100770.50;;;20.40;31.52
12594;BME280;6362;50.208;9.182;2023-05-03T10:58:45;100764.81;;;20.52;32.79
12594;BME280;6362;50.208;9.182;2023-05-03T11:01:16;100760.16;;;20.34;31.04
12594;BME280;6362;50.208;9.182;2023-05-03T11:03:53;100756.81;;;20.53;31.52
12594;BME280;6362;50.208;9.182;2023-05-03T11:06:38;100751.59;;;20.77;30.09
12594;BME280;6362;50.208;9.182;2023-05-03T11:09:07;100752.69;;;20.95;29.25
12594;BME280;6362;50.208;9.182;2023-05-03T11:11:35;100752.13;;;21.10;29.08
12594;BME280;6362;50.208;9.182;2023-05-03T11:14:01;100752.28;;;21.29;29.58
12594;BME280;6362;50.208;9.182;2023-05-03T11:16:28;100748.19;;;21.20;28.86
12594;BME280;6362;50.208;9.182;2023-05-03T11:18:53;100744.97;;;21.12;31.02
12594;BME280;6362;50.208;9.182;2023-05-03T11:21:19;100742.28;;;21.14;30.38
12594;BME280;6362;50.208;9.182;2023-05-03T11:23:45;100749.59;;;21.07;30.36
12594;BME280;6362;50.208;9.182;2023-05-03T11:26:11;100750.38;;;21.09;30.60
12594;BME280;6362;50.208;9.182;2023-05-03T11:28:41;100749.59;;;21.30;30.31
12594;BME280;6362;50.208;9.182;2023-05-03T11:31:10;100747.53;;;21.39;29.98
12594;BME280;6362;50.208;9.182;2023-05-03T11:33:37;100745.34;;;21.48;31.07
12594;BME280;6362;50.208;9.182;2023-05-03T11:36:04;100740.28;;;21.44;28.61
12594;BME280;6362;50.208;9.182;2023-05-03T11:38:34;100737.56;;;21.67;30.51
12594;BME280;6362;50.208;9.182;2023-05-03T11:41:10;100730.91;;;21.57;27.89
12594;BME280;6362;50.208;9.182;2023-05-03T11:43:47;100735.91;;;22.07;27.77
12594;BME280;6362;50.208;9.182;2023-05-03T11:46:19;100726.03;;;21.68;26.67
12594;BME280;6362;50.208;9.182;2023-05-03T11:48:45;100726.31;;;22.04;29.13
12594;BME280;6362;50.208;9.182;2023-05-03T11:51:11;100725.59;;;22.42;30.02
12594;BME280;6362;50.208;9.182;2023-05-03T11:53:39;100729.13;;;22.81;28.01
12594;BME280;6362;50.208;9.182;2023-05-03T11:56:10;100721.59;;;22.72;26.72
12594;BME280;6362;50.208;9.182;2023-05-03T11:58:57;100718.06;;;23.11;28.07
12594;BME280;6362;50.208;9.182;2023-05-03T12:01:26;100707.81;;;23.03;25.52
12594;BME280;6362;50.208;9.182;2023-05-03T12:03:57;100713.81;;;23.26;26.73
12594;BME280;6362;50.208;9.182;2023-05-03T12:06:23;100708.53;;;23.07;26.96
12594;BME280;6362;50.208;9.182;2023-05-03T12:08:49;100701.16;;;22.74;26.42
12594;BME280;6362;50.208;9.182;2023-05-03T12:11:15;100705.47;;;22.77;27.25
12594;BME280;6362;50.208;9.182;2023-05-03T12:13:40;100708.94;;;23.35;26.41
12594;BME280;6362;50.208;9.182;2023-05-03T12:16:09;100699.72;;;23.42;26.49
12594;BME280;6362;50.208;9.182;2023-05-03T12:21:14;100684.91;;;23.75;27.20
12594;BME280;6362;50.208;9.182;2023-05-03T12:23:40;100685.94;;;23.89;26.61
12594;BME280;6362;50.208;9.182;2023-05-03T12:26:06;100690.09;;;23.78;25.33
12594;BME280;6362;50.208;9.182;2023-05-03T12:28:32;100667.25;;;23.91;25.40
12594;BME280;6362;50.208;9.182;2023-05-03T12:30:58;100663.16;;;23.49;24.73
12594;BME280;6362;50.208;9.182;2023-05-03T12:33:24;100668.84;;;23.23;26.27
12594;BME280;6362;50.208;9.182;2023-05-03T12:35:49;100673.97;;;22.89;26.43
12594;BME280;6362;50.208;9.182;2023-05-03T12:38:15;100672.41;;;23.40;26.01
12594;BME280;6362;50.208;9.182;2023-05-03T12:40:41;100665.84;;;23.48;25.44
12594;BME280;6362;50.208;9.182;2023-05-03T12:43:06;100681.69;;;23.13;26.21
12594;BME280;6362;50.208;9.182;2023-05-03T12:45:32;100672.41;;;23.40;26.42
12594;BME280;6362;50.208;9.182;2023-05-03T12:47:57;100666.97;;;23.25;26.10
12594;BME280;6362;50.208;9.182;2023-05-03T12:50:23;100673.38;;;23.21;26.60
12594;BME280;6362;50.208;9.182;2023-05-03T12:52:49;100659.84;;;23.44;26.37
12594;BME280;6362;50.208;9.182;2023-05-03T12:55:15;100663.75;;;23.73;27.00
12594;BME280;6362;50.208;9.182;2023-05-03T12:57:40;100657.09;;;23.82;25.28
12594;BME280;6362;50.208;9.182;2023-05-03T13:00:07;100654.84;;;23.74;25.53
12594;BME280;6362;50.208;9.182;2023-05-03T13:02:34;100644.75;;;23.81;24.26
12594;BME280;6362;50.208;9.182;2023-05-03T13:05:00;100646.22;;;24.04;25.23
12594;BME280;6362;50.208;9.182;2023-05-03T13:07:26;100639.63;;;24.45;26.24
12594;BME280;6362;50.208;9.182;2023-05-03T13:09:53;100644.63;;;24.67;25.10
12594;BME280;6362;50.208;9.182;2023-05-03T13:12:19;100636.75;;;24.66;24.64
12594;BME280;6362;50.208;9.182;2023-05-03T13:14:46;100628.50;;;25.02;23.73
12594;BME280;6362;50.208;9.182;2023-05-03T13:17:13;100619.25;;;25.09;23.63
12594;BME280;6362;50.208;9.182;2023-05-03T13:19:42;100616.06;;;24.87;24.83
12594;BME280;6362;50.208;9.182;2023-05-03T13:22:09;100616.91;;;24.87;23.25
12594;BME280;6362;50.208;9.182;2023-05-03T13:24:35;100618.13;;;24.66;24.16